Time;durP1;ratioP1;P1;durP2;ratioP2;P2;SDS_P1;SDS_P2;PMS_P1;PMS_P2;Temp;Humidity;BMP_temperature;BMP_pressure;BME280_temperature;BME280_humidity;BME280_pressure;Samples;Min_cycle;Max_cycle;Signal;HPM_P1;HPM_P2
2021/05/26 00:01:56;;;;;;;3.50;2.53;;;10.30;99.90;;;;;;5035288;28;20446;-81
2021/05/26 00:04:21;;;;;;;4.70;2.07;;;10.30;99.90;;;;;;5048203;28;20438;-80
2021/05/26 00:06:50;;;;;;;2.90;2.33;;;10.20;99.90;;;;;;5034506;28;20737;-80
2021/05/26 00:09:23;;;;;;;3.97;2.00;;;10.20;99.90;;;;;;5043566;28;20449;-80
2021/05/26 00:11:54;;;;;;;6.93;2.20;;;10.30;99.90;;;;;;5038211;28;20532;-80
2021/05/26 00:14:20;;;;;;;2.23;1.90;;;10.20;99.90;;;;;;5034555;28;20431;-80
2021/05/26 00:16:55;;;;;;;3.90;2.07;;;10.20;99.90;;;;;;5027803;28;20462;-80
2021/05/26 00:19:24;;;;;;;3.07;2.07;;;10.20;99.90;;;;;;5053254;28;20439;-80
2021/05/26 00:21:55;;;;;;;3.27;2.47;;;10.20;99.90;;;;;;5054427;28;20426;-80
2021/05/26 00:24:24;;;;;;;4.90;2.33;;;10.20;99.90;;;;;;5050300;28;20517;-80
2021/05/26 00:26:52;;;;;;;3.20;2.13;;;10.20;99.90;;;;;;5034369;28;20419;-80
2021/05/26 00:29:18;;;;;;;7.40;2.37;;;10.20;99.90;;;;;;5037140;28;20931;-80
2021/05/26 00:31:46;;;;;;;5.40;2.10;;;10.20;99.90;;;;;;5034242;28;20463;-80
2021/05/26 00:34:12;;;;;;;4.80;2.17;;;10.30;99.90;;;;;;5035402;28;20492;-80
2021/05/26 00:36:45;;;;;;;4.20;2.43;;;10.20;99.90;;;;;;5044525;28;20519;-80
2021/05/26 00:39:16;;;;;;;4.13;2.10;;;10.20;99.90;;;;;;5034130;28;20847;-80
2021/05/26 00:41:44;;;;;;;3.93;2.30;;;10.20;99.90;;;;;;5034026;28;20498;-80
2021/05/26 00:44:14;;;;;;;5.50;2.33;;;10.20;99.90;;;;;;5016794;28;20510;-80
2021/05/26 00:46:45;;;;;;;2.87;2.23;;;10.20;99.90;;;;;;5053824;28;20498;-80
2021/05/26 00:49:14;;;;;;;6.67;2.77;;;10.20;99.90;;;;;;5048270;28;20441;-81
2021/05/26 00:51:43;;;;;;;8.20;3.80;;;10.10;99.90;;;;;;5047865;28;20458;-80
2021/05/26 00:54:10;;;;;;;8.00;4.90;;;10.10;99.90;;;;;;5034000;28;20431;-81
2021/05/26 00:56:41;;;;;;;5.07;4.47;;;10.20;99.90;;;;;;5045879;28;20902;-80
2021/05/26 00:59:10;;;;;;;5.67;4.97;;;10.20;99.90;;;;;;5053048;28;20422;-80
2021/05/26 01:01:38;;;;;;;5.10;4.40;;;10.20;99.90;;;;;;5041672;28;20952;-80
2021/05/26 01:04:05;;;;;;;6.17;4.10;;;10.20;99.90;;;;;;5037616;28;20973;-80
2021/05/26 01:06:33;;;;;;;7.57;5.00;;;10.20;99.90;;;;;;5036266;28;20423;-81
2021/05/26 01:09:02;;;;;;;8.83;4.53;;;10.20;99.90;;;;;;5048559;28;20428;-80
2021/05/26 01:11:30;;;;;;;13.50;4.83;;;10.20;99.90;;;;;;5053721;28;20429;-80
2021/05/26 01:14:03;;;;;;;7.80;5.50;;;10.30;99.90;;;;;;5052845;28;20919;-80
2021/05/26 01:16:32;;;;;;;8.13;4.50;;;10.20;99.90;;;;;;5034692;28;20422;-80
2021/05/26 01:19:00;;;;;;;6.87;4.00;;;10.30;99.90;;;;;;5037527;28;20850;-80
2021/05/26 01:21:33;;;;;;;8.20;3.63;;;10.30;99.90;;;;;;5035232;28;20500;-80
2021/05/26 01:24:02;;;;;;;6.40;3.33;;;10.30;99.90;;;;;;5033430;28;20456;-80
2021/05/26 01:26:32;;;;;;;6.20;3.33;;;10.20;99.90;;;;;;5045048;28;20763;-80
2021/05/26 01:29:01;;;;;;;6.63;3.00;;;10.20;99.90;;;;;;5032926;28;20431;-80
2021/05/26 01:31:37;;;;;;;6.27;3.20;;;10.20;99.90;;;;;;5049197;28;20425;-80
2021/05/26 01:34:09;;;;;;;5.10;3.23;;;10.10;99.90;;;;;;5036671;28;20437;-80
2021/05/26 01:36:42;;;;;;;6.67;3.57;;;10.10;99.90;;;;;;5036041;28;20470;-80
2021/05/26 01:39:17;;;;;;;8.27;3.47;;;10.10;99.90;;;;;;5052186;28;20524;-80
2021/05/26 01:41:48;;;;;;;8.17;3.60;;;10.10;99.90;;;;;;5019011;28;20430;-80
2021/05/26 01:44:15;;;;;;;5.83;3.90;;;10.10;99.90;;;;;;5048836;28;20445;-81
2021/05/26 01:46:51;;;;;;;5.23;3.70;;;10.20;99.90;;;;;;5051693;28;20452;-81
2021/05/26 01:49:22;;;;;;;6.77;3.57;;;10.20;99.90;;;;;;5051455;28;20455;-80
2021/05/26 01:51:52;;;;;;;5.67;2.90;;;10.20;99.90;;;;;;5034053;28;20954;-80
2021/05/26 01:54:21;;;;;;;5.77;3.20;;;10.20;99.90;;;;;;5055292;28;20461;-81
2021/05/26 01:56:49;;;;;;;4.97;3.10;;;10.10;99.90;;;;;;5055947;28;20441;-80
2021/05/26 01:59:27;;;;;;;8.77;3.47;;;10.20;99.90;;;;;;5025341;28;20909;-81
2021/05/26 02:01:58;;;;;;;6.77;3.53;;;10.20;99.90;;;;;;5071721;28;20524;-81
2021/05/26 02:04:32;;;;;;;8.00;3.07;;;10.20;99.90;;;;;;5036835;28;20525;-80
2021/05/26 02:07:07;;;;;;;7.63;3.90;;;10.20;99.90;;;;;;5053937;28;20922;-81
2021/05/26 02:09:37;;;;;;;14.57;3.50;;;10.30;99.90;;;;;;5056701;28;20794;-81
2021/05/26 02:12:32;;;;;;;9.93;3.47;;;10.30;99.90;;;;;;5048644;28;20511;-80
2021/05/26 02:15:06;;;;;;;7.87;3.90;;;10.30;99.90;;;;;;5055413;28;20526;-80
2021/05/26 02:17:37;;;;;;;5.07;3.30;;;10.30;99.90;;;;;;5056824;28;20414;-80
2021/05/26 02:20:11;;;;;;;6.30;3.30;;;10.30;99.90;;;;;;5053566;28;20449;-81
2021/05/26 02:22:42;;;;;;;5.63;3.23;;;10.30;99.90;;;;;;5044510;28;20519;-80
2021/05/26 02:25:12;;;;;;;7.03;4.27;;;10.30;99.90;;;;;;5009732;28;20435;-80
2021/05/26 02:27:47;;;;;;;7.13;4.30;;;10.30;99.90;;;;;;5003116;28;20427;-80
2021/05/26 02:30:32;;;;;;;5.13;3.07;;;10.40;99.90;;;;;;5051251;28;20468;-80
2021/05/26 02:33:03;;;;;;;5.63;3.60;;;10.40;99.90;;;;;;5055980;28;20806;-80
2021/05/26 02:35:31;;;;;;;9.17;4.37;;;10.40;99.90;;;;;;5024339;28;20423;-80
2021/05/26 02:37:57;;;;;;;9.40;4.20;;;10.50;99.90;;;;;;5035241;28;20423;-80
2021/05/26 02:40:24;;;;;;;11.47;4.30;;;10.50;99.90;;;;;;5047571;28;20457;-80
2021/05/26 02:43:00;;;;;;;12.50;4.20;;;10.40;99.90;;;;;;5038412;28;20467;-80
2021/05/26 02:45:33;;;;;;;6.33;3.20;;;10.40;99.90;;;;;;5038905;28;20457;-80
2021/05/26 02:48:04;;;;;;;7.13;4.10;;;10.30;99.90;;;;;;5038902;28;20554;-80
2021/05/26 02:50:33;;;;;;;8.70;4.60;;;10.40;99.90;;;;;;5054365;28;20464;-80
2021/05/26 02:53:01;;;;;;;12.87;4.67;;;10.30;99.90;;;;;;5020986;28;20953;-80
2021/05/26 02:55:33;;;;;;;8.23;3.70;;;10.40;99.90;;;;;;5054202;28;20427;-81
2021/05/26 02:58:20;;;;;;;8.03;3.43;;;10.30;99.90;;;;;;5055142;28;20434;-80
2021/05/26 03:01:05;;;;;;;10.00;3.80;;;10.40;99.90;;;;;;5053687;28;20440;-80
2021/05/26 03:03:51;;;;;;;11.43;3.20;;;10.30;99.90;;;;;;5054002;28;20482;-80
2021/05/26 03:06:32;;;;;;;4.77;3.50;;;10.30;99.90;;;;;;5047414;28;20952;-81
2021/05/26 03:08:58;;;;;;;5.10;3.50;;;10.30;99.90;;;;;;5048027;28;20485;-80
2021/05/26 03:11:36;;;;;;;10.63;4.47;;;10.30;99.90;;;;;;5054298;28;20753;-80
2021/05/26 03:14:14;;;;;;;12.07;3.67;;;10.30;99.90;;;;;;5054298;28;20491;-81
2021/05/26 03:16:44;;;;;;;9.97;3.70;;;10.30;99.90;;;;;;5021972;28;20477;-80
2021/05/26 03:19:13;;;;;;;8.03;3.27;;;10.30;99.90;;;;;;5045115;28;20517;-80
2021/05/26 03:21:41;;;;;;;10.43;3.93;;;10.30;99.90;;;;;;5043116;28;20442;-81
2021/05/26 03:24:35;;;;;;;9.33;3.40;;;10.20;99.90;;;;;;5025116;28;20443;-81
2021/05/26 03:27:04;;;;;;;10.70;3.80;;;10.20;99.90;;;;;;5035823;28;20439;-81
2021/05/26 03:29:36;;;;;;;8.77;3.67;;;10.30;99.90;;;;;;5034224;28;20431;-80
2021/05/26 03:32:02;;;;;;;9.17;3.30;;;10.30;99.90;;;;;;5050329;28;20472;-80
2021/05/26 03:34:35;;;;;;;11.03;3.57;;;10.20;99.90;;;;;;5034324;28;20441;-80
2021/05/26 03:37:04;;;;;;;9.27;3.97;;;10.30;99.90;;;;;;5036080;28;20875;-81
2021/05/26 03:39:34;;;;;;;9.70;3.40;;;10.20;99.90;;;;;;5053997;28;20886;-80
2021/05/26 03:42:01;;;;;;;7.03;3.50;;;10.20;99.90;;;;;;5050099;28;20431;-80
2021/05/26 03:44:30;;;;;;;6.80;3.47;;;10.20;99.90;;;;;;5034060;28;20831;-81
2021/05/26 03:46:59;;;;;;;9.13;4.27;;;10.20;99.90;;;;;;5053849;28;20421;-80
2021/05/26 03:49:33;;;;;;;8.63;3.40;;;10.20;99.90;;;;;;5037931;28;20748;-80
2021/05/26 03:52:01;;;;;;;6.70;3.03;;;10.30;99.90;;;;;;5041130;28;20480;-80
2021/05/26 03:54:31;;;;;;;8.07;4.00;;;10.30;99.90;;;;;;5015921;28;20866;-81
2021/05/26 03:57:06;;;;;;;6.80;4.03;;;10.30;99.90;;;;;;5036653;28;20827;-80
2021/05/26 03:59:34;;;;;;;9.17;4.10;;;10.30;99.90;;;;;;5053333;28;20442;-81
2021/05/26 04:02:05;;;;;;;5.97;3.20;;;10.30;99.90;;;;;;5051390;28;20635;-80
2021/05/26 04:04:39;;;;;;;8.57;2.73;;;10.40;99.90;;;;;;5033678;28;20491;-80
2021/05/26 04:07:11;;;;;;;6.00;3.30;;;10.30;99.90;;;;;;5046141;28;20913;-80
2021/05/26 04:09:44;;;;;;;6.20;3.70;;;10.40;99.90;;;;;;5053475;28;20423;-81
2021/05/26 04:12:17;;;;;;;12.77;3.53;;;10.40;99.90;;;;;;5040236;28;20472;-80
2021/05/26 04:15:06;;;;;;;6.13;2.97;;;10.30;99.90;;;;;;5034379;28;20725;-80
2021/05/26 04:18:13;;;;;;;8.40;3.20;;;10.30;99.90;;;;;;5025484;28;20462;-80
2021/05/26 04:20:46;;;;;;;9.13;2.80;;;10.30;99.90;;;;;;5042624;28;20502;-81
2021/05/26 04:23:13;;;;;;;12.80;3.50;;;10.30;99.90;;;;;;5053408;28;20434;-80
2021/05/26 04:25:56;;;;;;;6.70;2.87;;;10.30;99.90;;;;;;5045050;28;20456;-81
2021/05/26 04:28:23;;;;;;;3.77;2.70;;;10.30;99.90;;;;;;5020091;28;20422;-80
2021/05/26 04:30:53;;;;;;;5.00;3.10;;;10.40;99.90;;;;;;5043698;28;20488;-81
2021/05/26 04:33:27;;;;;;;4.60;2.23;;;10.40;99.90;;;;;;5047045;28;20477;-81
2021/05/26 04:35:58;;;;;;;7.17;3.50;;;10.40;99.90;;;;;;5034812;28;20898;-80
2021/05/26 04:38:26;;;;;;;5.43;2.97;;;10.30;99.90;;;;;;5045112;28;20422;-81
2021/05/26 04:40:55;;;;;;;5.07;2.87;;;10.40;99.90;;;;;;5016630;28;20506;-81
2021/05/26 04:43:29;;;;;;;5.03;2.80;;;10.40;99.90;;;;;;5049083;28;20435;-80
2021/05/26 04:46:00;;;;;;;6.13;2.87;;;10.40;99.90;;;;;;5052768;28;20760;-80
2021/05/26 04:48:29;;;;;;;7.67;2.83;;;10.40;99.90;;;;;;5042114;28;20897;-80
2021/05/26 04:50:57;;;;;;;5.77;2.57;;;10.40;99.90;;;;;;5043847;28;20450;-80
2021/05/26 04:53:27;;;;;;;6.10;2.60;;;10.50;99.90;;;;;;5047340;28;20569;-80
2021/05/26 04:55:55;;;;;;;4.07;2.70;;;10.50;99.90;;;;;;5044522;28;20460;-81
2021/05/26 04:58:21;;;;;;;5.40;2.60;;;10.40;99.90;;;;;;5033667;28;20470;-81
2021/05/26 05:00:47;;;;;;;3.67;2.43;;;10.50;99.90;;;;;;5034506;28;20446;-80
2021/05/26 05:03:13;;;;;;;7.33;3.13;;;10.50;99.90;;;;;;5016523;28;20470;-81
2021/05/26 05:05:42;;;;;;;3.73;2.60;;;10.50;99.90;;;;;;5037753;28;20566;-81
2021/05/26 05:08:10;;;;;;;3.33;2.43;;;10.60;99.90;;;;;;5053487;28;20202;-81
2021/05/26 05:10:38;;;;;;;5.83;2.40;;;10.60;99.90;;;;;;5043516;28;20458;-81
2021/05/26 05:13:04;;;;;;;6.27;2.63;;;10.60;99.90;;;;;;5032940;28;20471;-81
2021/05/26 05:15:31;;;;;;;6.43;2.77;;;10.60;99.90;;;;;;5023391;28;20439;-80
2021/05/26 05:18:04;;;;;;;5.13;3.00;;;10.60;99.90;;;;;;5051330;28;20538;-81
2021/05/26 05:20:30;;;;;;;5.03;3.30;;;10.80;99.90;;;;;;5032247;28;20826;-82
2021/05/26 05:23:01;;;;;;;7.30;3.50;;;10.80;99.90;;;;;;5042608;28;20449;-81
2021/05/26 05:25:27;;;;;;;8.63;4.10;;;10.90;99.90;;;;;;5042238;28;20891;-80
2021/05/26 05:27:59;;;;;;;5.23;3.30;;;10.80;99.90;;;;;;5045474;28;20888;-81
2021/05/26 05:30:30;;;;;;;7.03;3.83;;;11.00;99.90;;;;;;5039614;28;20448;-80
2021/05/26 05:32:59;;;;;;;20.83;3.30;;;11.00;99.90;;;;;;5056079;28;20477;-81
2021/05/26 05:35:28;;;;;;;6.27;3.70;;;11.10;99.90;;;;;;5038678;28;20831;-80
2021/05/26 05:38:01;;;;;;;3.50;2.53;;;11.10;99.90;;;;;;5054285;28;20467;-81
2021/05/26 05:40:30;;;;;;;3.90;2.90;;;11.10;99.90;;;;;;5057072;28;20919;-81
2021/05/26 05:42:58;;;;;;;3.37;2.50;;;11.10;99.90;;;;;;5039053;28;20454;-80
2021/05/26 05:45:26;;;;;;;4.40;2.80;;;11.10;99.90;;;;;;5036908;28;20419;-81
2021/05/26 05:47:55;;;;;;;4.60;2.50;;;11.10;99.90;;;;;;5048928;28;20434;-80
2021/05/26 05:50:25;;;;;;;3.83;2.47;;;11.10;99.90;;;;;;5038301;28;20461;-82
2021/05/26 05:52:56;;;;;;;6.87;2.50;;;11.10;99.90;;;;;;5046574;28;20510;-81
2021/05/26 05:55:22;;;;;;;2.20;1.97;;;11.10;99.90;;;;;;5056846;28;20429;-81
2021/05/26 05:57:50;;;;;;;3.93;2.60;;;11.10;99.90;;;;;;5046836;28;20741;-81
2021/05/26 06:00:19;;;;;;;3.30;2.33;;;11.10;99.90;;;;;;5036715;28;20438;-81
2021/05/26 06:02:46;;;;;;;2.50;2.30;;;11.20;99.90;;;;;;5044779;28;20469;-81
2021/05/26 06:05:13;;;;;;;3.10;2.50;;;11.20;99.90;;;;;;5054025;28;20430;-82
2021/05/26 06:07:44;;;;;;;7.80;2.70;;;11.30;99.90;;;;;;5064673;28;20769;-81
2021/05/26 06:10:15;;;;;;;3.50;2.30;;;11.30;99.90;;;;;;5039272;28;20911;-83
2021/05/26 06:12:43;;;;;;;4.63;2.37;;;11.30;99.90;;;;;;5054055;28;20477;-82
2021/05/26 06:15:17;;;;;;;4.13;2.40;;;11.40;99.90;;;;;;5050829;28;20422;-81
2021/05/26 06:17:45;;;;;;;4.00;2.27;;;11.40;99.90;;;;;;5051087;28;20433;-81
2021/05/26 06:20:17;;;;;;;1.90;1.70;;;11.50;99.90;;;;;;5053820;28;20434;-80
2021/05/26 06:22:48;;;;;;;3.83;2.50;;;11.40;99.90;;;;;;5054177;28;20959;-81
2021/05/26 06:25:21;;;;;;;4.10;2.17;;;11.40;99.90;;;;;;5047427;28;21048;-81
2021/05/26 06:27:49;;;;;;;2.50;1.90;;;11.40;99.90;;;;;;5033325;28;20999;-81
2021/05/26 06:30:46;;;;;;;3.67;2.60;;;11.40;99.90;;;;;;5054569;28;20437;-81
2021/05/26 06:33:17;;;;;;;3.90;2.00;;;11.30;99.90;;;;;;5049606;28;20477;-81
2021/05/26 06:35:48;;;;;;;2.73;2.27;;;11.40;99.90;;;;;;5049207;28;20434;-79
2021/05/26 06:38:19;;;;;;;3.00;1.97;;;11.40;99.90;;;;;;5062093;28;20457;-81
2021/05/26 06:40:49;;;;;;;2.50;2.30;;;11.30;99.90;;;;;;5047098;28;20430;-80
2021/05/26 06:43:20;;;;;;;3.53;1.87;;;11.30;99.90;;;;;;5053680;28;20434;-80
2021/05/26 06:45:46;;;;;;;3.17;2.07;;;11.30;99.90;;;;;;5045641;28;20442;-82
2021/05/26 06:48:12;;;;;;;2.80;2.27;;;11.30;99.90;;;;;;5053321;28;20442;-80
2021/05/26 06:50:43;;;;;;;2.60;2.40;;;11.30;99.90;;;;;;5055087;28;20938;-81
2021/05/26 06:53:11;;;;;;;2.30;2.10;;;11.30;99.90;;;;;;5053474;28;20470;-81
2021/05/26 06:55:45;;;;;;;2.17;2.00;;;11.40;99.90;;;;;;5053820;28;20809;-81
2021/05/26 06:58:12;;;;;;;8.60;2.10;;;11.60;99.90;;;;;;5033237;28;20466;-82
2021/05/26 07:00:40;;;;;;;2.43;2.00;;;11.60;99.90;;;;;;5051578;28;20476;-82
2021/05/26 07:03:11;;;;;;;4.27;2.10;;;11.70;99.90;;;;;;5046521;28;20496;-82
2021/05/26 07:05:42;;;;;;;3.43;2.20;;;11.80;99.90;;;;;;5025821;28;20887;-80
2021/05/26 07:08:10;;;;;;;2.93;2.30;;;11.90;99.90;;;;;;5052531;28;20426;-80
2021/05/26 07:10:39;;;;;;;3.60;1.80;;;12.00;99.90;;;;;;5050280;28;20453;-80
2021/05/26 07:13:10;;;;;;;3.33;2.63;;;12.00;99.90;;;;;;5031326;28;20462;-81
2021/05/26 07:16:03;;;;;;;6.20;2.00;;;12.20;99.90;;;;;;5052544;28;20885;-81
2021/05/26 07:18:36;;;;;;;2.43;2.30;;;12.40;99.90;;;;;;5048187;28;20423;-81
2021/05/26 07:21:15;;;;;;;3.47;2.47;;;12.60;99.90;;;;;;5052222;28;20414;-80
2021/05/26 07:23:48;;;;;;;2.77;2.43;;;12.50;99.90;;;;;;5034276;28;20422;-80
2021/05/26 07:26:20;;;;;;;3.67;2.57;;;12.50;99.90;;;;;;5052649;28;20423;-80
2021/05/26 07:28:49;;;;;;;2.93;2.70;;;12.60;99.90;;;;;;5052275;28;20776;-80
2021/05/26 07:31:18;;;;;;;5.00;2.80;;;12.50;99.90;;;;;;5052017;28;20530;-81
2021/05/26 07:33:49;;;;;;;2.70;2.50;;;12.40;99.90;;;;;;5053829;28;20509;-80
2021/05/26 07:36:15;;;;;;;3.17;2.87;;;12.50;99.90;;;;;;5051365;28;20423;-82
2021/05/26 07:38:41;;;;;;;2.90;2.70;;;12.60;99.90;;;;;;5052505;28;20437;-80
2021/05/26 07:41:12;;;;;;;6.23;2.50;;;12.70;99.90;;;;;;5052560;28;20434;-82
2021/05/26 07:43:38;;;;;;;2.93;2.63;;;12.70;99.90;;;;;;5045349;28;20433;-80
2021/05/26 07:46:05;;;;;;;3.20;3.00;;;12.60;99.90;;;;;;5034480;28;20469;-80
2021/05/26 07:48:35;;;;;;;3.53;3.23;;;12.70;99.90;;;;;;5036351;28;20755;-80
2021/05/26 07:51:06;;;;;;;3.03;2.90;;;12.80;99.90;;;;;;5048783;28;20435;-81
2021/05/26 07:53:34;;;;;;;3.00;2.70;;;12.80;99.90;;;;;;5052142;28;20517;-80
2021/05/26 07:56:03;;;;;;;3.27;3.07;;;12.80;99.90;;;;;;5051816;28;20438;-81
2021/05/26 07:58:29;;;;;;;2.80;2.70;;;12.90;99.90;;;;;;5052817;28;20484;-81
2021/05/26 08:15:09;;;;;;;5.43;4.70;;;13.10;99.90;;;;;;5046046;28;20604;-80
2021/05/26 08:17:35;;;;;;;3.50;3.30;;;13.20;99.90;;;;;;4986593;28;20477;-72
2021/05/26 08:20:03;;;;;;;3.20;2.90;;;13.10;99.90;;;;;;4979021;28;20452;-72
2021/05/26 08:22:30;;;;;;;3.43;3.03;;;13.10;99.90;;;;;;4994137;28;20487;-72
2021/05/26 08:24:56;;;;;;;3.03;2.83;;;13.10;99.90;;;;;;5008720;28;20535;-72
2021/05/26 08:27:23;;;;;;;3.13;2.97;;;13.20;99.90;;;;;;5010861;28;20437;-72
2021/05/26 08:29:49;;;;;;;3.50;3.30;;;13.10;99.90;;;;;;5011215;28;20946;-72
2021/05/26 08:32:15;;;;;;;5.60;3.30;;;13.10;99.90;;;;;;5010709;28;20595;-72
2021/05/26 08:34:41;;;;;;;3.30;3.10;;;13.10;99.90;;;;;;5010050;28;20447;-72
2021/05/26 08:37:07;;;;;;;3.50;3.30;;;13.30;99.90;;;;;;5011130;28;20446;-72
2021/05/26 08:39:35;;;;;;;3.53;3.33;;;13.50;99.90;;;;;;5009686;28;20436;-72
2021/05/26 08:42:02;;;;;;;3.50;3.27;;;13.60;99.90;;;;;;5005371;28;20437;-72
2021/05/26 08:44:31;;;;;;;3.33;3.23;;;13.60;99.90;;;;;;4992867;28;20451;-73
2021/05/26 08:47:02;;;;;;;3.83;3.63;;;13.50;99.90;;;;;;5010460;28;20452;-72
2021/05/26 08:49:30;;;;;;;3.50;3.30;;;13.40;99.90;;;;;;5010325;28;20441;-73
2021/05/26 08:52:01;;;;;;;4.00;3.80;;;13.30;99.90;;;;;;4991209;28;20491;-73
2021/05/26 08:54:27;;;;;;;3.90;3.70;;;13.20;99.90;;;;;;5010904;28;20490;-73
2021/05/26 08:56:54;;;;;;;3.90;3.70;;;13.20;99.90;;;;;;4993718;28;20792;-72
2021/05/26 08:59:22;;;;;;;3.60;3.40;;;13.20;99.90;;;;;;5010163;28;20527;-72
2021/05/26 09:01:53;;;;;;;4.10;3.50;;;13.10;99.90;;;;;;5010459;28;20448;-72
2021/05/26 09:04:35;;;;;;;3.30;3.10;;;13.10;99.90;;;;;;4977277;28;20424;-72
2021/05/26 09:07:09;;;;;;;3.20;3.10;;;13.30;99.90;;;;;;5010000;28;20834;-72
2021/05/26 09:10:08;;;;;;;4.03;3.73;;;13.50;99.90;;;;;;5010845;28;20812;-70
2021/05/26 09:12:45;;;;;;;4.20;3.90;;;13.60;99.90;;;;;;4960183;28;20488;-72
2021/05/26 09:15:16;;;;;;;4.13;3.70;;;13.70;99.90;;;;;;5010138;28;20436;-72
2021/05/26 09:17:51;;;;;;;4.03;3.80;;;13.80;99.90;;;;;;5010020;28;20440;-69
2021/05/26 09:20:24;;;;;;;4.23;4.03;;;14.00;99.90;;;;;;5002655;28;20453;-72
2021/05/26 09:23:13;;;;;;;4.27;4.07;;;14.30;99.90;;;;;;5006534;28;20437;-72
2021/05/26 09:26:00;;;;;;;4.83;4.37;;;14.70;99.90;;;;;;5002966;28;20915;-72
2021/05/26 09:28:28;;;;;;;4.37;4.07;;;14.80;99.90;;;;;;5010119;28;20436;-72
2021/05/26 09:31:09;;;;;;;4.63;4.33;;;14.90;99.90;;;;;;5009120;28;20465;-72
2021/05/26 09:33:45;;;;;;;4.33;4.10;;;14.90;99.90;;;;;;5010246;28;20463;-72
2021/05/26 09:36:12;;;;;;;4.33;4.03;;;14.90;99.90;;;;;;4991367;28;20498;-72
2021/05/26 09:38:51;;;;;;;4.33;4.13;;;14.90;99.90;;;;;;5010371;28;20463;-72
2021/05/26 09:41:24;;;;;;;4.90;4.70;;;15.00;99.90;;;;;;4992765;28;20462;-73
2021/05/26 09:44:01;;;;;;;4.90;4.60;;;15.10;99.90;;;;;;4992479;28;20558;-72
2021/05/26 09:46:34;;;;;;;5.10;4.70;;;15.00;99.90;;;;;;4993223;28;20455;-72
2021/05/26 09:49:06;;;;;;;4.83;4.47;;;15.00;99.90;;;;;;5010024;28;20813;-70
2021/05/26 09:51:38;;;;;;;4.20;3.93;;;14.70;99.90;;;;;;4985389;28;21024;-72
2021/05/26 09:54:24;;;;;;;3.90;3.70;;;14.70;99.90;;;;;;4992777;28;20483;-72
2021/05/26 09:57:08;;;;;;;4.57;4.37;;;15.00;99.90;;;;;;5001166;28;20436;-72
2021/05/26 09:59:37;;;;;;;5.23;4.93;;;15.30;99.90;;;;;;4990030;28;20795;-72
2021/05/26 10:02:07;;;;;;;4.97;4.67;;;15.30;98.00;;;;;;5008161;28;20546;-72
2021/05/26 10:04:41;;;;;;;5.03;4.73;;;15.20;99.50;;;;;;5010181;28;20563;-72
2021/05/26 10:07:26;;;;;;;5.30;5.00;;;15.50;99.90;;;;;;5008818;28;20493;-73
2021/05/26 10:09:52;;;;;;;5.53;5.03;;;15.70;98.70;;;;;;5009769;28;21125;-72
2021/05/26 10:12:37;;;;;;;5.00;4.70;;;15.70;99.80;;;;;;5013677;28;20976;-74
2021/05/26 10:15:06;;;;;;;4.60;4.40;;;15.90;99.90;;;;;;5012334;28;20438;-72
2021/05/26 10:17:37;;;;;;;5.00;4.70;;;16.10;99.70;;;;;;4994674;28;20465;-71
2021/05/26 10:20:12;;;;;;;4.80;4.60;;;16.50;99.90;;;;;;4984741;28;20468;-73
2021/05/26 10:22:39;;;;;;;5.07;4.80;;;16.90;97.70;;;;;;4996206;28;20841;-75
2021/05/26 10:25:06;;;;;;;5.63;5.23;;;17.10;96.90;;;;;;4995348;28;20426;-75
2021/05/26 10:27:34;;;;;;;5.40;5.10;;;17.10;96.80;;;;;;4979220;28;20420;-74
2021/05/26 10:30:06;;;;;;;5.47;5.17;;;17.10;97.30;;;;;;4981698;28;20486;-75
2021/05/26 10:32:53;;;;;;;4.93;4.73;;;17.10;97.30;;;;;;4975412;28;20508;-74
2021/05/26 10:35:22;;;;;;;5.47;5.20;;;16.80;96.70;;;;;;4976668;28;20410;-74
2021/05/26 10:38:07;;;;;;;5.10;4.90;;;16.50;95.90;;;;;;4975934;28;20961;-74
2021/05/26 10:40:41;;;;;;;5.10;4.90;;;16.20;96.70;;;;;;4975285;28;20445;-74
2021/05/26 10:43:18;;;;;;;5.67;5.47;;;16.20;98.90;;;;;;4959063;28;20449;-73
2021/05/26 10:45:48;;;;;;;6.20;5.80;;;16.30;98.40;;;;;;4988099;28;20444;-73
2021/05/26 10:48:43;;;;;;;6.30;5.90;;;16.20;98.90;;;;;;4998108;28;20770;-75
2021/05/26 10:51:14;;;;;;;6.73;6.23;;;16.00;98.40;;;;;;4996260;28;20448;-71
2021/05/26 10:53:41;;;;;;;5.93;5.63;;;15.80;98.00;;;;;;5014891;28;20528;-73
2021/05/26 10:56:33;;;;;;;6.37;5.97;;;15.80;99.90;;;;;;4965630;28;20437;-72
2021/05/26 10:59:10;;;;;;;6.03;5.73;;;16.00;99.80;;;;;;4973034;28;20494;-71
2021/05/26 11:02:18;;;;;;;6.20;5.90;;;16.20;98.50;;;;;;4977117;28;20482;-71
2021/05/26 11:04:49;;;;;;;6.27;5.97;;;16.60;98.00;;;;;;4915520;29;20437;-72
2021/05/26 11:07:19;;;;;;;6.40;6.10;;;16.90;98.70;;;;;;4915259;29;20483;-71
2021/05/26 11:10:01;;;;;;;6.80;6.30;;;17.20;96.70;;;;;;4914885;29;20437;-71
2021/05/26 11:12:28;;;;;;;5.50;5.30;;;17.10;95.70;;;;;;4899477;29;20838;-72
2021/05/26 11:14:55;;;;;;;5.40;5.20;;;17.10;94.90;;;;;;4915308;29;20479;-71
2021/05/26 11:17:31;;;;;;;5.67;5.47;;;17.00;95.40;;;;;;4899489;29;20472;-71
2021/05/26 11:20:14;;;;;;;5.50;5.20;;;17.20;94.40;;;;;;4899202;29;20800;-71
2021/05/26 11:22:41;;;;;;;5.37;5.00;;;17.40;95.60;;;;;;4896857;29;20981;-72
2021/05/26 11:25:09;;;;;;;5.63;5.43;;;17.30;95.50;;;;;;4914786;29;20635;-71
2021/05/26 11:27:35;;;;;;;5.70;5.40;;;17.30;95.30;;;;;;4899031;29;20425;-72
2021/05/26 11:30:04;;;;;;;5.77;5.47;;;17.30;94.90;;;;;;4913983;29;21308;-71
2021/05/26 11:32:32;;;;;;;6.17;5.87;;;17.30;95.70;;;;;;4914243;29;20487;-72
2021/05/26 11:35:01;;;;;;;5.70;5.40;;;17.60;95.40;;;;;;4906900;28;20426;-71
2021/05/26 11:37:36;;;;;;;5.63;5.40;;;17.60;93.70;;;;;;4993719;28;20841;-71
2021/05/26 11:40:15;;;;;;;5.70;5.50;;;17.40;94.60;;;;;;4992247;28;20484;-71
2021/05/26 11:42:42;;;;;;;5.40;5.20;;;17.10;96.00;;;;;;4992570;28;20440;-71
2021/05/26 11:45:10;;;;;;;5.83;5.43;;;16.90;96.70;;;;;;4991888;28;20432;-71
2021/05/26 11:47:39;;;;;;;5.20;5.00;;;16.60;96.00;;;;;;4975754;28;20427;-71
2021/05/26 11:50:14;;;;;;;6.30;5.90;;;16.60;97.40;;;;;;4974749;28;20557;-71
2021/05/26 11:52:48;;;;;;;5.63;5.33;;;16.60;96.10;;;;;;4992350;28;20954;-71
2021/05/26 11:55:16;;;;;;;8.03;5.37;;;16.80;96.70;;;;;;4970843;28;21003;-72
2021/05/26 11:57:45;;;;;;;5.70;5.40;;;17.20;97.10;;;;;;4989508;28;20432;-72
2021/05/26 12:00:24;;;;;;;6.33;6.03;;;17.60;96.20;;;;;;4973817;28;20961;-75
2021/05/26 12:02:53;;;;;;;6.70;6.40;;;17.90;95.30;;;;;;4990777;28;20482;-72
2021/05/26 12:05:35;;;;;;;6.40;6.00;;;18.00;94.30;;;;;;4956771;28;20441;-72
2021/05/26 12:08:02;;;;;;;5.90;5.60;;;17.80;93.70;;;;;;4988544;28;20439;-71
2021/05/26 12:10:31;;;;;;;6.40;6.10;;;17.80;96.60;;;;;;4990589;28;20781;-70
2021/05/26 12:13:03;;;;;;;5.70;5.47;;;18.00;94.40;;;;;;4964939;28;20468;-71
2021/05/26 12:15:29;;;;;;;5.60;5.40;;;17.80;94.80;;;;;;4993809;28;20981;-72
2021/05/26 12:17:58;;;;;;;6.30;6.00;;;17.40;95.20;;;;;;4960028;28;20496;-71
2021/05/26 12:20:27;;;;;;;5.83;5.53;;;17.10;96.40;;;;;;4976239;28;20515;-72
2021/05/26 12:22:55;;;;;;;6.43;6.13;;;16.80;97.20;;;;;;4993800;28;20963;-71
2021/05/26 12:25:21;;;;;;;5.27;4.97;;;16.30;98.20;;;;;;4986307;28;20429;-71
2021/05/26 12:27:48;;;;;;;6.07;5.67;;;16.00;99.90;;;;;;4990096;28;20810;-72
2021/05/26 12:30:28;;;;;;;5.73;5.37;;;15.60;99.90;;;;;;4989980;28;20468;-71
2021/05/26 12:33:12;;;;;;;5.40;5.00;;;15.10;99.90;;;;;;4956434;28;20543;-72
2021/05/26 12:35:38;;;;;;;5.30;5.00;;;14.80;99.90;;;;;;4955742;28;20518;-71
2021/05/26 12:38:24;;;;;;;4.40;4.00;;;14.40;99.90;;;;;;4972447;28;20430;-72
2021/05/26 12:40:51;;;;;;;4.37;3.97;;;14.30;99.90;;;;;;4973146;28;20449;-71
2021/05/26 12:43:27;;;;;;;3.87;3.67;;;14.30;99.90;;;;;;4973268;28;20426;-72
2021/05/26 12:45:59;;;;;;;4.90;4.57;;;14.40;99.90;;;;;;4971275;28;20869;-72
2021/05/26 12:48:33;;;;;;;4.80;4.50;;;14.90;99.90;;;;;;4974152;28;20421;-72
2021/05/26 12:51:01;;;;;;;5.90;5.60;;;15.60;99.90;;;;;;4986884;28;20563;-72
2021/05/26 12:53:36;;;;;;;6.00;5.50;;;16.20;99.90;;;;;;4983930;28;20566;-72
2021/05/26 12:56:05;;;;;;;5.57;5.17;;;16.80;99.90;;;;;;4988500;28;20429;-72
2021/05/26 12:58:41;;;;;;;6.90;6.40;;;17.30;99.90;;;;;;5003880;28;20445;-72
2021/05/26 13:01:12;;;;;;;6.90;6.50;;;17.60;98.70;;;;;;4981350;28;20463;-72
2021/05/26 13:03:41;;;;;;;6.80;6.40;;;17.60;97.40;;;;;;4974031;28;20984;-71
2021/05/26 13:06:15;;;;;;;7.33;6.93;;;17.80;98.80;;;;;;4973180;28;20450;-72
2021/05/26 13:09:03;;;;;;;7.10;6.70;;;18.10;99.20;;;;;;4958151;28;20534;-72
2021/05/26 13:11:45;;;;;;;6.93;6.40;;;18.60;96.10;;;;;;4972268;28;20488;-72
2021/05/26 13:14:50;;;;;;;7.90;7.40;;;18.90;96.30;;;;;;4995885;28;20516;-74
2021/05/26 13:17:27;;;;;;;7.20;6.70;;;18.90;94.20;;;;;;4916948;28;20464;-74
2021/05/26 13:19:57;;;;;;;8.60;8.00;;;19.20;94.20;;;;;;4966679;28;20541;-74
2021/05/26 13:22:27;;;;;;;7.77;7.27;;;19.60;93.10;;;;;;4972706;28;20450;-72
2021/05/26 13:24:53;;;;;;;7.33;6.77;;;19.50;92.40;;;;;;4972063;28;20441;-72